createdAt,value
2022-10-20T00:03:40.470Z,0
2022-10-20T00:08:40.429Z,0
2022-10-20T00:13:39.912Z,0
2022-10-20T00:18:39.263Z,0
2022-10-20T00:23:38.544Z,0
2022-10-20T00:28:38.537Z,0
2022-10-20T00:33:37.711Z,0
2022-10-20T00:38:38.470Z,0
2022-10-20T00:43:36.032Z,0
2022-10-20T00:48:36.006Z,0
2022-10-20T00:53:35.463Z,0
2022-10-20T00:58:34.378Z,0
2022-10-20T00:59:55.846Z,0
2022-10-20T01:04:55.953Z,0
2022-10-20T01:09:57.139Z,0
2022-10-20T01:14:55.703Z,0
2022-10-20T01:19:54.365Z,0
2022-10-20T01:24:53.991Z,0
2022-10-20T01:29:53.908Z,0
2022-10-20T01:34:55.557Z,0
2022-10-20T01:39:53.894Z,0
2022-10-20T01:44:50.889Z,0
2022-10-20T01:49:50.735Z,0
2022-10-20T01:54:49.747Z,0
2022-10-20T01:59:15.242Z,0
2022-10-20T02:04:14.792Z,0
2022-10-20T02:09:14.765Z,0
2022-10-20T02:14:13.719Z,0
2022-10-20T02:19:14.404Z,0
2022-10-20T02:24:11.660Z,0
2022-10-20T02:29:11.843Z,0
2022-10-20T02:34:10.652Z,0
2022-10-20T02:39:10.229Z,0
2022-10-20T02:44:08.375Z,0
2022-10-20T02:49:08.150Z,0
2022-10-20T02:54:08.028Z,0
2022-10-20T02:58:54.762Z,0
2022-10-20T03:03:54.189Z,0
2022-10-20T03:08:54.807Z,0
2022-10-20T03:13:53.832Z,0
2022-10-20T03:18:53.443Z,0
2022-10-20T03:23:53.805Z,0
2022-10-20T03:28:51.124Z,0
2022-10-20T03:33:50.862Z,0
2022-10-20T03:38:50.432Z,0
2022-10-20T03:43:49.513Z,0
2022-10-20T03:48:48.765Z,0
2022-10-20T03:53:48.860Z,0
2022-10-20T03:58:47.702Z,0
2022-10-20T04:03:48.654Z,0
2022-10-20T04:08:45.924Z,0
2022-10-20T04:13:45.478Z,0
2022-10-20T04:18:44.366Z,0
2022-10-20T04:23:44.535Z,0
2022-10-20T04:28:42.880Z,0
2022-10-20T04:33:42.880Z,0
2022-10-20T04:38:42.675Z,0
2022-10-20T04:43:41.900Z,0
2022-10-20T04:48:40.941Z,0
2022-10-20T04:53:40.693Z,0
2022-10-20T04:58:40.028Z,0
2022-10-20T05:03:39.682Z,0
2022-10-20T05:08:37.653Z,0
2022-10-20T05:13:36.950Z,0
2022-10-20T05:18:36.805Z,0
2022-10-20T05:23:36.669Z,0
2022-10-20T05:28:35.348Z,0
2022-10-20T05:33:34.720Z,0
2022-10-20T05:38:34.480Z,0
2022-10-20T05:43:34.135Z,0
2022-10-20T05:48:34.342Z,0
2022-10-20T05:53:32.065Z,0
2022-10-20T05:58:31.709Z,0
2022-10-20T05:59:53.747Z,0
2022-10-20T06:04:52.836Z,0
2022-10-20T06:09:50.733Z,0
2022-10-20T06:14:50.548Z,0
2022-10-20T06:19:50.331Z,0.01
2022-10-20T06:24:49.894Z,0.01
2022-10-20T06:30:04.695Z,0.01
2022-10-20T06:34:48.662Z,0.02
2022-10-20T06:39:48.737Z,0.02
2022-10-20T06:44:48.358Z,0.02
2022-10-20T06:49:47.158Z,0.03
2022-10-20T06:54:46.357Z,0.03
2022-10-20T06:59:12.899Z,0.04
2022-10-20T07:04:12.280Z,0.04
2022-10-20T07:09:11.474Z,0.05
2022-10-20T07:14:11.253Z,0.05
2022-10-20T07:19:10.702Z,0.06
2022-10-20T07:24:10.725Z,0.06
2022-10-20T07:29:11.367Z,0.07
2022-10-20T07:34:29.570Z,0.07
2022-10-20T07:39:08.619Z,0.07
2022-10-20T07:44:07.371Z,0.09
2022-10-20T07:49:46.758Z,0.1
2022-10-20T07:54:05.755Z,0.1
2022-10-20T07:58:52.104Z,0.12
2022-10-20T08:03:52.831Z,0.12
2022-10-20T08:08:52.540Z,0.12
2022-10-20T08:13:51.385Z,0.13
2022-10-20T08:19:01.674Z,0.13
2022-10-20T08:23:52.294Z,0.14
2022-10-20T08:28:51.316Z,0.15
2022-10-20T08:33:55.256Z,0.16
2022-10-20T08:38:49.256Z,0.16
2022-10-20T08:43:49.229Z,0.16
2022-10-20T08:48:48.399Z,0.17
2022-10-20T08:53:49.024Z,0.17
2022-10-20T08:58:32.148Z,0.2
2022-10-20T09:04:24.889Z,0.21
2022-10-20T09:08:31.180Z,0.2
2022-10-20T09:13:30.464Z,0.18
2022-10-20T09:18:30.457Z,0.15
2022-10-20T09:23:44.831Z,0.12
2022-10-20T09:29:15.116Z,0.12
2022-10-20T09:33:27.476Z,0.14
2022-10-20T09:38:27.207Z,0.17
2022-10-20T09:43:25.982Z,0.18
2022-10-20T09:48:25.818Z,0.17
2022-10-20T09:53:34.446Z,0.18
2022-10-20T09:58:19.088Z,0.18
2022-10-20T09:59:34.043Z,0.18
2022-10-20T10:04:33.694Z,0.18
2022-10-20T10:09:32.966Z,0.2
2022-10-20T10:14:32.716Z,0.22
2022-10-20T10:19:32.341Z,0.22
2022-10-20T10:24:33.404Z,0.19
2022-10-20T10:29:29.780Z,0.11
2022-10-20T10:34:29.809Z,0.09
2022-10-20T10:39:28.870Z,0.09
2022-10-20T10:44:28.798Z,0.07
2022-10-20T10:49:26.554Z,0.07
2022-10-20T10:54:26.343Z,0.12
2022-10-20T10:58:58.261Z,0.14
2022-10-20T11:03:57.853Z,0.13
2022-10-20T11:08:57.165Z,0.1
2022-10-20T11:13:56.623Z,0.08
2022-10-20T11:18:56.185Z,0.11
2022-10-20T11:23:56.502Z,0.11
2022-10-20T11:28:55.962Z,0.14
2022-10-20T11:33:53.238Z,0.15
2022-10-20T11:38:53.389Z,0.09
2022-10-20T11:43:52.527Z,0.08
2022-10-20T11:48:51.960Z,0.07
2022-10-20T11:53:51.392Z,0.06
2022-10-20T11:58:51.430Z,0.08
2022-10-20T12:03:50.134Z,0.12
2022-10-20T12:08:51.544Z,0.1
2022-10-20T12:13:48.422Z,0.08
2022-10-20T12:18:48.331Z,0.06
2022-10-20T12:23:47.062Z,0.08
2022-10-20T12:28:47.434Z,0.12
2022-10-20T12:33:45.570Z,0.1
2022-10-20T12:38:44.951Z,0.09
2022-10-20T12:43:44.731Z,0.12
2022-10-20T12:48:45.743Z,0.13
2022-10-20T12:53:43.479Z,0.09
2022-10-20T12:58:43.032Z,0.07
2022-10-20T13:03:42.251Z,0.08
2022-10-20T13:08:42.121Z,0.09
2022-10-20T13:13:39.711Z,0.09
2022-10-20T13:18:39.872Z,0.08
2022-10-20T13:23:38.783Z,0.08
2022-10-20T13:28:40.034Z,0.08
2022-10-20T13:34:08.027Z,0.08
2022-10-20T13:38:36.627Z,0.08
2022-10-20T13:43:36.071Z,0.06
2022-10-20T13:48:35.158Z,0.05
2022-10-20T13:53:34.165Z,0.04
2022-10-20T13:58:33.328Z,0.07
2022-10-20T13:59:54.298Z,0.07
2022-10-20T14:04:54.124Z,0.06
2022-10-20T14:09:56.733Z,0.05
2022-10-20T14:14:52.968Z,0.06
2022-10-20T14:19:52.534Z,0.05
2022-10-20T14:24:51.901Z,0.05
2022-10-20T14:30:24.979Z,0.05
2022-10-20T14:34:49.563Z,0.04
2022-10-20T14:39:49.471Z,0.05
2022-10-20T14:44:48.057Z,0.04
2022-10-20T14:49:54.582Z,0.04
2022-10-20T14:54:47.726Z,0.04
2022-10-20T14:59:13.825Z,0.03
2022-10-20T15:04:13.716Z,0.02
2022-10-20T15:09:20.669Z,0.02
2022-10-20T15:14:11.654Z,0.01
2022-10-20T15:19:11.094Z,0.01
2022-10-20T15:24:09.957Z,0.01
2022-10-20T15:29:09.652Z,0.01
2022-10-20T15:34:07.872Z,0.01
2022-10-20T15:39:07.741Z,0
2022-10-20T15:44:07.492Z,0
2022-10-20T15:49:07.109Z,0
2022-10-20T15:54:06.220Z,0
2022-10-20T15:58:53.188Z,0
2022-10-20T16:03:52.676Z,0
2022-10-20T16:08:52.725Z,0
2022-10-20T16:13:53.023Z,0
2022-10-20T16:18:49.974Z,0
2022-10-20T16:23:49.468Z,0
2022-10-20T16:28:49.112Z,0
2022-10-20T16:33:48.710Z,0
2022-10-20T16:38:47.715Z,0
2022-10-20T16:43:47.790Z,0
2022-10-20T16:48:50.674Z,0
2022-10-20T16:53:48.056Z,0
2022-10-20T16:58:44.878Z,0
2022-10-20T17:03:44.820Z,0
2022-10-20T17:08:44.399Z,0
2022-10-20T17:13:43.183Z,0
2022-10-20T17:18:41.310Z,0
2022-10-20T17:23:45.266Z,0
2022-10-20T17:28:41.136Z,0
2022-10-20T17:33:40.296Z,0
2022-10-20T17:38:39.360Z,0
2022-10-20T17:43:39.296Z,0
2022-10-20T17:48:38.872Z,0
2022-10-20T17:53:38.616Z,0
2022-10-20T17:58:39.638Z,0
2022-10-20T18:03:36.781Z,0
2022-10-20T18:08:36.154Z,0
2022-10-20T18:13:35.764Z,0
2022-10-20T18:18:34.955Z,0
2022-10-20T18:23:34.318Z,0
2022-10-20T18:28:34.022Z,0
2022-10-20T18:33:33.645Z,0
2022-10-20T18:38:34.582Z,0
2022-10-20T18:43:31.306Z,0
2022-10-20T18:48:31.506Z,0
2022-10-20T18:53:30.391Z,0
2022-10-20T18:58:29.828Z,0
2022-10-20T18:59:51.368Z,0
2022-10-20T19:04:51.114Z,0
2022-10-20T19:09:57.672Z,0
2022-10-20T19:14:50.566Z,0
2022-10-20T19:19:49.593Z,0
2022-10-20T19:24:49.211Z,0
2022-10-20T19:29:49.079Z,0
2022-10-20T19:34:48.894Z,0
2022-10-20T19:39:49.482Z,0
2022-10-20T19:44:46.407Z,0
2022-10-20T19:49:46.566Z,0
2022-10-20T19:59:13.576Z,0
2022-10-20T20:04:13.272Z,0
2022-10-20T20:09:55.282Z,0
2022-10-20T20:14:13.004Z,0
2022-10-20T20:19:12.776Z,0
2022-10-20T20:24:10.378Z,0
2022-10-20T20:29:10.057Z,0
2022-10-20T20:34:08.682Z,0
2022-10-20T20:39:08.817Z,0
2022-10-20T20:44:11.497Z,0
2022-10-20T20:49:06.405Z,0
2022-10-20T20:54:06.548Z,0
2022-10-20T20:58:57.036Z,0
2022-10-20T21:03:52.813Z,0
2022-10-20T21:08:52.235Z,0
2022-10-20T21:13:51.785Z,0
2022-10-20T21:18:50.592Z,0
2022-10-20T21:23:48.817Z,0
2022-10-20T21:28:48.098Z,0
2022-10-20T21:33:48.387Z,0
2022-10-20T21:38:47.361Z,0
2022-10-20T21:43:47.003Z,0
2022-10-20T21:48:45.986Z,0
2022-10-20T21:53:45.981Z,0
2022-10-20T21:58:45.651Z,0
2022-10-20T22:03:46.175Z,0
2022-10-20T22:08:43.518Z,0
2022-10-20T22:13:43.266Z,0
2022-10-20T22:18:42.103Z,0
2022-10-20T22:23:42.379Z,0
2022-10-20T22:28:40.040Z,0
2022-10-20T22:33:39.699Z,0
2022-10-20T22:38:39.511Z,0
2022-10-20T22:43:39.020Z,0
2022-10-20T22:48:38.376Z,0
2022-10-20T22:53:37.948Z,0
2022-10-20T22:58:38.177Z,0
2022-10-20T23:03:37.125Z,0
2022-10-20T23:08:36.823Z,0
2022-10-20T23:13:35.978Z,0
2022-10-20T23:18:35.617Z,0
2022-10-20T23:23:35.143Z,0
2022-10-20T23:28:36.074Z,0
2022-10-20T23:33:33.266Z,0
2022-10-20T23:38:32.932Z,0
2022-10-20T23:43:32.106Z,0
2022-10-20T23:48:31.206Z,0
2022-10-20T23:53:29.537Z,0
2022-10-20T23:58:34.775Z,0
